createdAt,value
2018-04-14T18:00:30.097Z,69.60
2018-04-14T18:02:57.617Z,69.50
2018-04-14T18:05:25.450Z,69.50
2018-04-14T18:07:52.981Z,69.50
2018-04-14T18:10:20.543Z,69.50
2018-04-14T18:12:48.052Z,69.50
2018-04-14T18:15:15.653Z,69.50
2018-04-14T18:17:43.329Z,69.50
2018-04-14T18:20:11.284Z,69.50
2018-04-14T18:22:38.844Z,69.50
2018-04-14T18:25:06.507Z,69.50
2018-04-14T18:27:34.021Z,69.50
2018-04-14T18:30:01.548Z,69.50
2018-04-14T18:32:29.595Z,69.50
2018-04-14T18:34:57.148Z,69.50
2018-04-14T18:37:24.656Z,69.50
2018-04-14T18:39:52.166Z,69.50
2018-04-14T18:42:19.719Z,69.50
2018-04-14T18:44:48.617Z,69.50
2018-04-14T18:47:16.278Z,69.50
2018-04-14T18:49:44.677Z,69.50
2018-04-14T18:52:12.665Z,69.50
2018-04-14T18:54:40.338Z,69.50
2018-04-14T18:57:07.937Z,69.50
2018-04-14T18:59:35.503Z,69.50
2018-04-14T19:02:03.016Z,69.50
2018-04-14T19:04:30.572Z,69.50
2018-04-14T19:06:58.079Z,69.50
2018-04-14T19:09:25.683Z,69.50
2018-04-14T19:11:53.194Z,69.50
2018-04-14T19:14:20.753Z,69.50
2018-04-14T19:16:48.265Z,69.50
2018-04-14T19:19:15.860Z,69.50
2018-04-14T19:21:43.528Z,69.50
2018-04-14T19:24:11.184Z,69.50
2018-04-14T19:26:42.737Z,69.50
2018-04-14T19:29:10.405Z,69.50
2018-04-14T19:31:37.982Z,69.50
2018-04-14T19:34:05.930Z,69.50
2018-04-14T19:36:33.611Z,69.50
2018-04-14T19:39:01.675Z,69.40
2018-04-14T19:41:29.339Z,69.40
2018-04-14T19:43:57.352Z,69.40
2018-04-14T19:46:24.880Z,69.40
2018-04-14T19:48:52.517Z,69.40
2018-04-14T19:51:20.174Z,69.40
2018-04-14T19:53:47.735Z,69.40
2018-04-14T19:56:15.500Z,69.40
2018-04-14T19:58:43.152Z,69.30
2018-04-14T20:01:10.680Z,69.30
2018-04-14T20:03:48.382Z,69.30
2018-04-14T20:06:15.982Z,69.30
2018-04-14T20:08:43.887Z,69.30
2018-04-14T20:11:11.513Z,69.30
2018-04-14T20:13:39.564Z,69.30
2018-04-14T20:16:07.220Z,69.30
2018-04-14T20:18:34.798Z,69.20
2018-04-14T20:21:02.748Z,69.20
2018-04-14T20:23:30.840Z,69.20
2018-04-14T20:25:58.476Z,69.20
2018-04-14T20:28:26.165Z,69.20
2018-04-14T20:30:54.222Z,69.20
2018-04-14T20:33:22.147Z,69.10
2018-04-14T20:35:49.742Z,69.10
2018-04-14T20:38:17.420Z,69.10
2018-04-14T20:40:44.960Z,69.20
2018-04-14T20:43:12.541Z,69.10
2018-04-14T20:45:40.177Z,69.10
2018-04-14T20:48:07.836Z,69.10
2018-04-14T20:50:35.392Z,69.10
2018-04-14T20:53:02.974Z,69.10
2018-04-14T20:55:30.486Z,69.10
2018-04-14T20:57:58.097Z,69.10
2018-04-14T21:00:26.146Z,69.10
2018-04-14T21:02:53.806Z,69.10
2018-04-14T21:05:21.332Z,69.00
2018-04-14T21:07:48.917Z,69.00
2018-04-14T21:10:17.450Z,69.00
2018-04-14T21:12:44.964Z,69.00
2018-04-14T21:15:12.532Z,69.00
2018-04-14T21:17:40.271Z,69.00
2018-04-14T21:20:08.201Z,69.00
2018-04-14T21:22:35.835Z,69.00
2018-04-14T21:25:03.768Z,69.00
2018-04-14T21:27:31.436Z,69.00
2018-04-14T21:29:59.021Z,69.00
2018-04-14T21:32:26.958Z,69.00
2018-04-14T21:34:54.648Z,69.00
2018-04-14T21:37:22.230Z,69.00
2018-04-14T21:39:49.969Z,69.00
2018-04-14T21:42:17.697Z,69.00
2018-04-14T21:44:45.263Z,69.00
2018-04-14T21:47:12.925Z,69.00
2018-04-14T21:49:40.588Z,69.00
2018-04-14T21:52:08.218Z,68.90
2018-04-14T21:54:35.908Z,69.00
2018-04-14T21:57:03.478Z,69.00
2018-04-14T21:59:31.024Z,68.90
2018-04-14T22:02:00.753Z,68.90
2018-04-14T22:04:28.403Z,68.90
2018-04-14T22:06:55.958Z,69.00
2018-04-14T22:09:23.717Z,68.90
2018-04-14T22:11:51.251Z,68.90
2018-04-14T22:14:30.847Z,69.00
2018-04-14T22:16:58.779Z,69.00
2018-04-14T22:19:26.291Z,69.00
2018-04-14T22:21:53.908Z,68.90
2018-04-14T22:24:21.560Z,69.00
2018-04-14T22:26:49.249Z,68.90
2018-04-14T22:29:16.904Z,68.90
2018-04-14T22:31:44.547Z,68.90
2018-04-14T22:34:12.082Z,68.90
2018-04-14T22:36:42.841Z,68.90
2018-04-14T22:39:10.625Z,69.00
2018-04-14T22:41:38.134Z,68.90
2018-04-14T22:44:05.718Z,68.90
2018-04-14T22:46:33.381Z,68.90
2018-04-14T22:49:00.890Z,68.90
2018-04-14T22:51:28.397Z,68.90
2018-04-14T22:53:55.957Z,68.90
2018-04-14T22:56:23.613Z,68.90
2018-04-14T22:58:51.179Z,68.90
2018-04-14T23:01:18.693Z,68.90
2018-04-14T23:03:46.215Z,68.90
2018-04-14T23:06:13.884Z,68.90
2018-04-14T23:08:41.776Z,68.90
2018-04-14T23:11:09.382Z,68.90
2018-04-14T23:13:36.916Z,68.90
2018-04-14T23:16:04.493Z,68.90
2018-04-14T23:18:32.152Z,68.90
2018-04-14T23:20:59.670Z,68.90
2018-04-14T23:23:27.241Z,68.90
2018-04-14T23:25:54.756Z,68.90
2018-04-14T23:28:22.268Z,68.90
2018-04-14T23:30:49.837Z,68.90
2018-04-14T23:33:17.351Z,68.90
2018-04-14T23:35:44.988Z,68.90
2018-04-14T23:38:12.523Z,68.90
2018-04-14T23:40:40.069Z,68.80
2018-04-14T23:43:07.629Z,68.80
2018-04-14T23:45:35.412Z,68.80
2018-04-14T23:48:02.948Z,68.90
2018-04-14T23:50:30.543Z,68.80
2018-04-14T23:52:58.173Z,68.90
2018-04-14T23:55:26.130Z,68.80
2018-04-14T23:57:53.701Z,68.90
